createdAt,value
2022-10-11T00:01:35.032Z,2.83
2022-10-11T00:04:01.610Z,1.83
2022-10-11T00:06:28.092Z,5.15
2022-10-11T00:08:54.481Z,1.70
2022-10-11T00:11:21.021Z,2.40
2022-10-11T00:13:47.758Z,2.03
2022-10-11T00:16:15.436Z,9.93
2022-10-11T00:18:42.495Z,2.13
2022-10-11T00:21:13.113Z,5.10
2022-10-11T00:23:40.601Z,6.03
2022-10-11T00:26:09.461Z,4.15
2022-10-11T00:28:37.074Z,2.05
2022-10-11T00:31:08.874Z,6.30
2022-10-11T00:33:41.289Z,3.28
2022-10-11T00:36:08.988Z,3.83
2022-10-11T00:38:35.956Z,3.67
2022-10-11T00:41:02.504Z,6.47
2022-10-11T00:43:31.145Z,2.60
2022-10-11T00:45:57.520Z,2.78
2022-10-11T00:48:33.608Z,8.63
2022-10-11T00:51:03.010Z,3.65
2022-10-11T00:53:30.641Z,1.95
2022-10-11T00:56:09.568Z,2.05
2022-10-11T00:58:38.633Z,1.95
2022-10-11T01:01:05.523Z,4.10
2022-10-11T01:03:35.372Z,4.00
2022-10-11T01:06:04.107Z,2.85
2022-10-11T01:08:31.524Z,4.38
2022-10-11T01:10:58.645Z,1.58
2022-10-11T01:13:41.347Z,3.63
2022-10-11T01:16:19.351Z,2.58
2022-10-11T01:19:23.166Z,3.05
2022-10-11T01:22:10.491Z,2.88
2022-10-11T01:24:58.600Z,2.58
2022-10-11T01:27:51.241Z,2.70
2022-10-11T01:30:26.776Z,2.30
2022-10-11T01:33:13.402Z,6.88
2022-10-11T01:35:45.079Z,3.20
2022-10-11T01:38:31.103Z,4.47
2022-10-11T01:41:08.503Z,2.50
2022-10-11T01:43:37.396Z,3.05
2022-10-11T01:46:05.442Z,0.93
2022-10-11T01:48:32.004Z,1.50
2022-10-11T01:51:02.180Z,5.32
2022-10-11T01:53:43.991Z,1.60
2022-10-11T01:56:31.855Z,1.65
2022-10-11T01:59:28.501Z,2.03
2022-10-11T02:02:12.069Z,1.13
2022-10-11T02:04:56.241Z,1.08
2022-10-11T02:07:31.458Z,3.03
2022-10-11T02:10:22.328Z,6.15
2022-10-11T02:12:54.990Z,2.25
2022-10-11T02:15:22.885Z,1.98
2022-10-11T02:17:54.407Z,2.38
2022-10-11T02:20:25.031Z,3.77
2022-10-11T02:22:56.705Z,1.48
2022-10-11T02:25:26.583Z,1.67
2022-10-11T02:27:56.713Z,1.63
2022-10-11T02:30:23.640Z,1.92
2022-10-11T02:32:51.688Z,4.50
2022-10-11T02:35:18.980Z,1.58
2022-10-11T02:37:53.393Z,3.00
2022-10-11T02:40:40.676Z,1.30
2022-10-11T02:43:28.089Z,1.77
2022-10-11T02:45:58.990Z,0.90
2022-10-11T02:48:28.484Z,2.78
2022-10-11T02:50:57.264Z,6.30
2022-10-11T02:53:24.816Z,1.52
2022-10-11T02:55:52.858Z,2.38
2022-10-11T02:58:20.429Z,1.40
2022-10-11T03:00:46.785Z,3.70
2022-10-11T03:03:13.156Z,2.25
2022-10-11T03:05:43.495Z,3.17
2022-10-11T03:08:12.544Z,1.83
2022-10-11T03:10:39.740Z,3.63
2022-10-11T03:13:06.517Z,5.43
2022-10-11T03:15:33.675Z,1.45
2022-10-11T03:18:00.058Z,2.63
2022-10-11T03:20:26.631Z,1.90
2022-10-11T03:22:53.758Z,2.70
2022-10-11T03:25:20.124Z,5.32
2022-10-11T03:27:46.487Z,2.50
2022-10-11T03:30:17.329Z,3.35
2022-10-11T03:32:44.688Z,2.00
2022-10-11T03:35:11.060Z,2.10
2022-10-11T03:37:37.663Z,1.30
2022-10-11T03:40:06.648Z,1.67
2022-10-11T03:42:33.174Z,5.57
2022-10-11T03:45:01.653Z,1.13
2022-10-11T03:47:28.183Z,1.77
2022-10-11T03:49:54.535Z,2.05
2022-10-11T03:52:20.972Z,2.22
2022-10-11T03:54:47.931Z,2.42
2022-10-11T03:57:14.744Z,2.80
2022-10-11T03:59:41.145Z,1.70
2022-10-11T04:02:07.710Z,1.38
2022-10-11T04:04:34.358Z,2.70
2022-10-11T04:07:00.715Z,3.97
2022-10-11T04:09:27.156Z,1.27
2022-10-11T04:11:53.486Z,1.57
2022-10-11T04:14:20.014Z,3.22
2022-10-11T04:16:46.623Z,3.75
2022-10-11T04:19:12.958Z,1.90
2022-10-11T04:21:39.288Z,2.28
2022-10-11T04:24:05.973Z,4.73
2022-10-11T04:26:32.808Z,2.33
2022-10-11T04:28:59.252Z,3.15
2022-10-11T04:31:25.816Z,2.13
2022-10-11T04:33:52.348Z,0.90
2022-10-11T04:36:18.805Z,7.13
2022-10-11T04:38:45.149Z,4.88
2022-10-11T04:41:13.934Z,4.05
2022-10-11T04:43:40.364Z,3.28
2022-10-11T04:46:07.549Z,1.77
2022-10-11T04:48:35.838Z,1.70
2022-10-11T04:51:02.257Z,2.85
2022-10-11T04:53:28.672Z,3.38
2022-10-11T04:56:01.030Z,2.58
2022-10-11T04:58:29.167Z,3.05
2022-10-11T05:00:55.916Z,0.67
2022-10-11T05:03:22.647Z,2.42
2022-10-11T05:05:49.557Z,2.25
2022-10-11T05:08:16.312Z,2.35
2022-10-11T05:10:42.951Z,2.05
2022-10-11T05:13:09.572Z,1.90
2022-10-11T05:15:35.941Z,3.33
2022-10-11T05:18:02.580Z,0.77
2022-10-11T05:20:29.078Z,5.32
2022-10-11T05:22:55.544Z,4.32
2022-10-11T05:25:21.924Z,3.80
2022-10-11T05:27:48.858Z,4.30
2022-10-11T05:30:15.749Z,2.17
2022-10-11T05:32:42.205Z,3.90
2022-10-11T05:35:08.898Z,2.22
2022-10-11T05:37:35.471Z,2.60
2022-10-11T05:40:01.823Z,1.77
2022-10-11T05:42:28.316Z,5.03
2022-10-11T05:44:54.691Z,1.50
2022-10-11T05:47:21.284Z,1.05
2022-10-11T05:49:47.666Z,1.40
2022-10-11T05:52:21.566Z,0.98
2022-10-11T05:54:49.157Z,1.58
2022-10-11T05:57:16.059Z,1.52
2022-10-11T05:59:42.536Z,2.45
2022-10-11T06:02:13.584Z,5.13
2022-10-11T06:04:40.247Z,1.88
2022-10-11T06:07:07.056Z,2.55
2022-10-11T06:09:36.182Z,2.70
2022-10-11T06:12:02.817Z,2.15
2022-10-11T06:14:29.688Z,1.77
2022-10-11T06:16:56.054Z,3.60
2022-10-11T06:19:22.492Z,1.70
2022-10-11T06:21:48.992Z,2.25
2022-10-11T06:24:15.511Z,0.98
2022-10-11T06:26:42.152Z,4.07
2022-10-11T06:29:08.604Z,1.25
2022-10-11T06:31:35.017Z,3.30
2022-10-11T06:34:01.699Z,3.35
2022-10-11T06:36:28.616Z,1.10
2022-10-11T06:38:55.320Z,2.27
2022-10-11T06:41:25.357Z,5.72
2022-10-11T06:43:52.370Z,2.67
2022-10-11T06:46:20.299Z,2.22
2022-10-11T06:48:48.102Z,2.17
2022-10-11T06:51:17.736Z,2.97
2022-10-11T06:53:49.488Z,2.55
2022-10-11T06:56:15.827Z,4.13
2022-10-11T06:58:42.228Z,1.60
2022-10-11T07:01:13.520Z,4.07
2022-10-11T07:03:40.282Z,2.20
2022-10-11T07:06:09.999Z,3.28
2022-10-11T07:08:37.285Z,1.90
2022-10-11T07:11:06.502Z,1.35
2022-10-11T07:13:32.916Z,3.70
2022-10-11T07:16:04.775Z,2.33
2022-10-11T07:18:31.823Z,3.60
2022-10-11T07:20:59.336Z,5.85
2022-10-11T07:23:26.110Z,2.47
2022-10-11T07:25:54.739Z,4.47
2022-10-11T07:28:22.295Z,4.17
2022-10-11T07:30:50.954Z,3.00
2022-10-11T07:33:18.100Z,4.60
2022-10-11T07:35:48.194Z,8.80
2022-10-11T07:38:15.591Z,4.70
2022-10-11T07:40:44.368Z,6.87
2022-10-11T07:43:11.925Z,4.43
2022-10-11T07:45:42.441Z,4.60
2022-10-11T07:48:09.309Z,2.63
2022-10-11T07:50:35.915Z,4.10
2022-10-11T07:53:03.089Z,6.10
2022-10-11T07:55:31.595Z,2.72
2022-10-11T07:58:07.860Z,4.97
2022-10-11T08:00:34.464Z,4.30
2022-10-11T08:03:04.946Z,2.50
2022-10-11T08:05:32.228Z,6.93
2022-10-11T08:07:58.862Z,6.35
2022-10-11T08:10:26.506Z,4.97
2022-10-11T08:12:53.813Z,8.75
2022-10-11T08:15:27.020Z,6.95
2022-10-11T08:17:53.364Z,2.53
2022-10-11T08:20:19.913Z,1.92
2022-10-11T08:22:46.298Z,5.35
2022-10-11T08:25:12.649Z,3.85
2022-10-11T08:27:40.326Z,6.05
2022-10-11T08:30:11.825Z,3.67
2022-10-11T08:32:38.186Z,7.00
2022-10-11T08:35:04.955Z,5.55
2022-10-11T08:37:31.480Z,5.72
2022-10-11T08:39:57.870Z,5.57
2022-10-11T08:42:41.579Z,5.22
2022-10-11T08:45:14.081Z,6.13
2022-10-11T08:47:44.128Z,8.80
2022-10-11T08:50:21.765Z,7.65
2022-10-11T08:52:57.651Z,6.55
2022-10-11T08:55:36.136Z,6.00
2022-10-11T08:58:02.721Z,3.75
2022-10-11T09:00:33.020Z,5.47
2022-10-11T09:03:08.669Z,3.15
2022-10-11T09:05:48.385Z,5.00
2022-10-11T09:08:23.044Z,9.13
2022-10-11T09:11:01.742Z,5.03
2022-10-11T09:14:07.352Z,4.18
2022-10-11T09:17:03.349Z,6.80
2022-10-11T09:19:52.164Z,6.22
2022-10-11T09:22:43.377Z,9.23
2022-10-11T09:25:24.573Z,6.43
2022-10-11T09:28:06.289Z,3.95
2022-10-11T09:30:39.441Z,3.60
2022-10-11T09:33:08.772Z,6.38
2022-10-11T09:35:46.049Z,6.57
2022-10-11T09:38:18.844Z,3.33
2022-10-11T09:40:58.540Z,4.07
2022-10-11T09:43:25.384Z,5.30
2022-10-11T09:45:51.852Z,6.88
2022-10-11T09:48:22.693Z,4.27
2022-10-11T09:50:50.433Z,6.95
2022-10-11T09:53:16.948Z,7.05
2022-10-11T09:55:50.890Z,4.43
2022-10-11T09:58:35.492Z,8.32
2022-10-11T10:04:17.114Z,5.72
2022-10-11T10:06:43.521Z,3.20
2022-10-11T10:09:30.617Z,8.98
2022-10-11T10:12:09.918Z,5.30
2022-10-11T10:14:36.333Z,6.85
2022-10-11T10:17:06.535Z,9.80
2022-10-11T10:19:44.698Z,5.53
2022-10-11T10:22:20.800Z,3.45
2022-10-11T10:24:49.603Z,4.38
2022-10-11T10:27:24.607Z,6.78
2022-10-11T10:30:15.835Z,5.80
2022-10-11T10:33:04.527Z,6.50
2022-10-11T10:35:44.633Z,5.28
2022-10-11T10:38:35.634Z,8.88
2022-10-11T10:41:09.144Z,5.23
2022-10-11T10:43:38.375Z,4.75
2022-10-11T10:46:26.112Z,5.10
2022-10-11T10:52:41.097Z,3.40
2022-10-11T10:55:26.421Z,5.27
2022-10-11T10:58:07.353Z,4.80
2022-10-11T11:00:44.165Z,3.83
2022-10-11T11:03:37.315Z,7.53
2022-10-11T11:06:10.212Z,3.03
2022-10-11T11:08:57.540Z,5.83
2022-10-11T11:11:31.830Z,8.10
2022-10-11T11:14:27.953Z,7.38
2022-10-11T11:17:13.084Z,9.05
2022-10-11T11:19:53.580Z,4.88
2022-10-11T11:22:35.432Z,5.28
2022-10-11T11:25:19.936Z,8.38
2022-10-11T11:28:05.910Z,3.83
2022-10-11T11:31:03.602Z,4.05
2022-10-11T11:33:52.064Z,4.28
2022-10-11T11:36:43.686Z,4.73
2022-10-11T11:39:21.222Z,5.25
2022-10-11T11:42:02.041Z,2.88
2022-10-11T11:44:48.037Z,7.57
2022-10-11T11:47:31.918Z,5.63
2022-10-11T11:53:24.813Z,5.97
2022-10-11T11:56:08.935Z,8.57
2022-10-11T11:59:23.325Z,5.18
2022-10-11T12:02:14.137Z,2.53
2022-10-11T12:04:49.001Z,7.55
2022-10-11T12:09:59.042Z,7.15
2022-10-11T12:12:33.868Z,6.82
2022-10-11T12:18:16.496Z,3.20
2022-10-11T12:20:44.207Z,5.38
2022-10-11T12:23:43.537Z,4.35
2022-10-11T12:26:36.817Z,5.75
2022-10-11T12:29:05.996Z,6.78
2022-10-11T12:31:41.303Z,8.43
2022-10-11T12:34:10.192Z,6.47
2022-10-11T12:36:42.896Z,3.35
2022-10-11T12:39:18.155Z,7.60
2022-10-11T12:41:47.616Z,3.97
2022-10-11T12:47:00.055Z,8.35
2022-10-11T12:49:57.776Z,8.30
2022-10-11T12:53:05.254Z,3.80
2022-10-11T12:56:00.020Z,3.95
2022-10-11T12:58:46.401Z,11.10
2022-10-11T13:01:18.065Z,7.03
2022-10-11T13:06:29.726Z,9.05
2022-10-11T13:09:04.652Z,4.82
2022-10-11T13:11:38.764Z,5.50
2022-10-11T13:14:29.237Z,3.28
2022-10-11T13:17:44.268Z,5.68
2022-10-11T13:20:17.763Z,4.80
2022-10-11T13:22:48.350Z,6.97
2022-10-11T13:25:48.520Z,8.57
2022-10-11T13:37:53.353Z,5.45
2022-10-11T13:43:42.849Z,2.80
2022-10-11T13:46:43.875Z,5.13
2022-10-11T13:52:27.597Z,4.13
2022-10-11T13:55:02.969Z,6.68
2022-10-11T13:57:45.050Z,6.25
2022-10-11T14:00:32.213Z,3.90
2022-10-11T14:03:24.771Z,3.20
2022-10-11T14:06:01.750Z,5.30
2022-10-11T14:08:54.151Z,5.53
2022-10-11T14:11:36.574Z,6.10
2022-10-11T14:14:30.025Z,5.38
2022-10-11T14:16:59.587Z,5.05
2022-10-11T14:19:26.380Z,6.32
2022-10-11T14:21:53.296Z,5.43
2022-10-11T14:24:20.799Z,4.20
2022-10-11T14:26:54.570Z,5.75
2022-10-11T14:32:37.059Z,4.05
2022-10-11T14:35:04.347Z,4.90
2022-10-11T14:37:43.177Z,10.10
2022-10-11T14:40:14.149Z,1.98
2022-10-11T14:42:41.120Z,3.00
2022-10-11T14:45:13.617Z,6.15
2022-10-11T14:47:43.549Z,6.05
2022-10-11T14:50:44.849Z,8.40
2022-10-11T14:53:12.391Z,4.00
2022-10-11T14:55:44.188Z,7.35
2022-10-11T14:58:17.522Z,5.25
2022-10-11T15:00:51.199Z,4.57
2022-10-11T15:03:52.872Z,3.42
2022-10-11T15:06:48.842Z,2.80
2022-10-11T15:09:44.869Z,7.47
2022-10-11T15:12:27.057Z,7.18
2022-10-11T15:14:57.551Z,6.63
2022-10-11T15:17:31.208Z,5.32
2022-10-11T15:36:37.998Z,3.70
2022-10-11T15:39:07.525Z,5.38
2022-10-11T15:41:36.458Z,4.70
2022-10-11T15:44:03.340Z,4.28
2022-10-11T15:46:41.613Z,6.97
2022-10-11T15:49:13.576Z,4.38
2022-10-11T15:51:41.131Z,7.70
2022-10-11T15:54:07.644Z,6.47
2022-10-11T15:56:34.327Z,3.90
2022-10-11T15:59:01.811Z,6.55
2022-10-11T16:01:29.890Z,4.30
2022-10-11T16:03:56.546Z,8.70
2022-10-11T16:06:23.674Z,4.70
2022-10-11T16:08:50.342Z,6.75
2022-10-11T16:11:24.353Z,1.98
2022-10-11T16:13:50.829Z,8.52
2022-10-11T16:16:17.645Z,6.32
2022-10-11T16:18:44.580Z,5.53
2022-10-11T16:21:15.667Z,3.40
2022-10-11T16:23:46.130Z,3.63
2022-10-11T16:26:14.625Z,8.02
2022-10-11T16:28:44.794Z,4.57
2022-10-11T16:31:21.347Z,6.47
2022-10-11T16:34:00.440Z,5.70
2022-10-11T16:36:41.021Z,6.70
2022-10-11T16:39:15.971Z,7.07
2022-10-11T16:41:43.284Z,8.73
2022-10-11T16:44:20.889Z,6.53
2022-10-11T16:46:49.204Z,5.47
2022-10-11T16:49:17.879Z,5.35
2022-10-11T16:51:44.659Z,8.88
2022-10-11T16:54:13.723Z,7.28
2022-10-11T16:56:44.150Z,5.03
2022-10-11T16:59:12.068Z,5.05
2022-10-11T17:01:46.807Z,7.47
2022-10-11T17:04:14.027Z,7.45
2022-10-11T17:06:43.909Z,6.22
2022-10-11T17:09:11.515Z,4.57
2022-10-11T17:11:41.401Z,7.65
2022-10-11T17:14:08.782Z,6.80
2022-10-11T17:16:36.170Z,7.00
2022-10-11T17:19:18.065Z,6.57
2022-10-11T17:21:44.622Z,11.00
2022-10-11T17:24:11.252Z,9.48
2022-10-11T17:26:39.354Z,11.15
2022-10-11T17:29:06.746Z,18.15
2022-10-11T17:31:33.280Z,8.27
2022-10-11T17:34:01.167Z,7.00
2022-10-11T17:36:34.520Z,4.15
2022-10-11T17:39:06.860Z,4.05
2022-10-11T17:41:33.416Z,4.30
2022-10-11T17:44:02.898Z,7.28
2022-10-11T17:46:32.906Z,2.13
2022-10-11T17:49:01.395Z,17.42
2022-10-11T17:51:28.016Z,144.38
2022-10-11T17:53:54.591Z,85.40
2022-10-11T17:56:28.121Z,65.50
2022-10-11T17:58:58.333Z,31.80
2022-10-11T18:01:28.680Z,15.27
2022-10-11T18:04:00.824Z,9.55
2022-10-11T18:06:29.754Z,11.15
2022-10-11T18:08:59.513Z,7.70
2022-10-11T18:11:25.988Z,6.13
2022-10-11T18:13:55.735Z,8.38
2022-10-11T18:16:24.688Z,7.57
2022-10-11T18:18:51.368Z,6.45
2022-10-11T18:21:18.749Z,7.70
2022-10-11T18:23:45.741Z,7.57
2022-10-11T18:26:17.094Z,9.25
2022-10-11T18:28:50.433Z,5.80
2022-10-11T18:31:23.228Z,6.72
2022-10-11T18:36:27.890Z,8.47
2022-10-11T18:38:57.457Z,10.68
2022-10-11T18:41:30.648Z,9.30
2022-10-11T18:44:00.332Z,11.25
2022-10-11T18:46:27.908Z,10.25
2022-10-11T18:48:56.310Z,9.77
2022-10-11T18:51:25.154Z,9.30
2022-10-11T18:53:52.494Z,5.75
2022-10-11T18:56:20.830Z,7.78
2022-10-11T18:58:49.206Z,13.48
2022-10-11T19:01:22.049Z,6.47
2022-10-11T19:03:52.589Z,5.40
2022-10-11T19:06:47.961Z,3.67
2022-10-11T19:09:17.814Z,6.43
2022-10-11T19:11:48.588Z,5.60
2022-10-11T19:14:17.534Z,3.37
2022-10-11T19:16:49.119Z,8.02
2022-10-11T19:19:16.593Z,6.47
2022-10-11T19:21:43.035Z,6.40
2022-10-11T19:24:09.692Z,4.05
2022-10-11T19:26:38.826Z,5.83
2022-10-11T19:29:08.775Z,2.20
2022-10-11T19:31:39.996Z,4.50
2022-10-11T19:34:07.863Z,3.90
2022-10-11T19:36:36.817Z,6.28
2022-10-11T19:39:04.936Z,12.07
2022-10-11T19:41:31.718Z,14.05
2022-10-11T19:43:58.234Z,17.33
2022-10-11T19:46:50.294Z,13.40
2022-10-11T19:49:14.144Z,21.15
2022-10-11T19:51:40.714Z,14.40
2022-10-11T19:54:10.975Z,12.00
2022-10-11T19:56:37.552Z,11.73
2022-10-11T19:59:06.548Z,9.65
2022-10-11T20:01:55.856Z,13.38
2022-10-11T20:04:50.539Z,14.07
2022-10-11T20:07:08.612Z,10.00
2022-10-11T20:09:35.115Z,7.00
2022-10-11T20:12:01.494Z,10.73
2022-10-11T20:14:28.072Z,7.68
2022-10-11T20:16:54.498Z,8.37
2022-10-11T20:19:25.023Z,6.68
2022-10-11T20:21:53.231Z,5.80
2022-10-11T20:24:21.022Z,11.70
2022-10-11T20:26:47.474Z,5.35
2022-10-11T20:29:13.801Z,4.97
2022-10-11T20:31:41.738Z,3.10
2022-10-11T20:34:10.112Z,2.30
2022-10-11T20:36:36.659Z,5.57
2022-10-11T20:39:04.807Z,6.10
2022-10-11T20:44:49.625Z,6.22
2022-10-11T20:47:16.108Z,6.13
2022-10-11T20:49:45.359Z,3.45
2022-10-11T20:52:11.828Z,3.63
2022-10-11T20:54:40.576Z,3.97
2022-10-11T20:57:07.232Z,3.75
2022-10-11T20:59:33.627Z,8.13
2022-10-11T21:02:00.041Z,4.13
2022-10-11T21:04:26.590Z,3.88
2022-10-11T21:06:52.951Z,7.50
2022-10-11T21:09:19.512Z,10.10
2022-10-11T21:11:46.229Z,9.57
2022-10-11T21:14:12.781Z,7.22
2022-10-11T21:16:39.245Z,10.85
2022-10-11T21:19:06.394Z,15.07
2022-10-11T21:21:33.070Z,7.78
2022-10-11T21:24:01.248Z,11.07
2022-10-11T21:26:28.702Z,17.02
2022-10-11T21:28:55.374Z,14.35
2022-10-11T21:31:23.108Z,8.57
2022-10-11T21:33:50.000Z,10.25
2022-10-11T21:36:22.390Z,14.68
2022-10-11T21:38:50.149Z,13.70
2022-10-11T21:41:20.029Z,11.95
2022-10-11T21:43:47.296Z,7.20
2022-10-11T21:46:47.576Z,7.03
2022-10-11T21:49:13.613Z,8.48
2022-10-11T21:51:40.154Z,4.50
2022-10-11T21:54:06.838Z,3.90
2022-10-11T21:56:33.209Z,3.33
2022-10-11T21:58:59.761Z,4.90
2022-10-11T22:01:26.434Z,15.02
2022-10-11T22:03:54.003Z,7.05
2022-10-11T22:06:20.848Z,7.65
2022-10-11T22:08:47.887Z,4.90
2022-10-11T22:11:14.379Z,6.18
2022-10-11T22:13:40.888Z,3.22
2022-10-11T22:16:12.638Z,4.55
2022-10-11T22:18:39.829Z,6.38
2022-10-11T22:21:18.631Z,2.60
2022-10-11T22:23:47.870Z,6.70
2022-10-11T22:26:22.214Z,4.47
2022-10-11T22:28:49.161Z,6.68
2022-10-11T22:31:18.273Z,5.22
2022-10-11T22:36:12.756Z,6.22
2022-10-11T22:38:41.695Z,7.53
2022-10-11T22:41:08.933Z,4.68
2022-10-11T22:43:35.869Z,8.60
2022-10-11T22:46:02.725Z,2.53
2022-10-11T22:48:29.209Z,5.43
2022-10-11T22:50:55.585Z,3.75
2022-10-11T22:53:22.097Z,4.03
2022-10-11T22:55:48.568Z,5.85
2022-10-11T22:58:15.030Z,3.77
2022-10-11T23:00:41.563Z,9.70
2022-10-11T23:03:08.089Z,3.55
2022-10-11T23:05:35.504Z,3.05
2022-10-11T23:08:01.886Z,4.70
2022-10-11T23:10:28.337Z,4.73
2022-10-11T23:12:54.713Z,6.10
2022-10-11T23:15:21.106Z,5.88
2022-10-11T23:17:48.373Z,2.83
2022-10-11T23:20:14.852Z,5.93
2022-10-11T23:22:41.398Z,4.20
2022-10-11T23:25:08.325Z,1.77
2022-10-11T23:27:34.795Z,3.30
2022-10-11T23:30:01.341Z,5.07
2022-10-11T23:32:27.755Z,2.15
2022-10-11T23:34:54.280Z,2.37
2022-10-11T23:37:20.796Z,4.55
2022-10-11T23:39:47.240Z,4.95
2022-10-11T23:42:13.685Z,3.10
2022-10-11T23:44:40.040Z,4.07
2022-10-11T23:47:06.411Z,5.50
2022-10-11T23:49:32.868Z,3.67
2022-10-11T23:51:59.264Z,3.78
2022-10-11T23:54:25.727Z,5.43
2022-10-11T23:56:52.249Z,3.03
2022-10-11T23:59:18.705Z,4.07
